Latest Weather Observations for Launceston

IDT60801

Issued at 11:02 pm EDT Monday 26 January 2015 (issued every 30 minutes, with the page automatically refreshed every 10 minutes)

About weather observations | Map of weather stations | Latest weather observations for TAS | Other Formats
Station Details ID: 091237 Name: LAUNCESTON (TI TREE BEND) Lat: -41.42 Lon: 147.12 Height: 5.0 m
Data from the previous 72 hours. | See also: Recent months at Launceston
Date/Time
EDT
Temp
°C
App
Temp
°C
Dew
Point
Rel
Hum
%
Delta-T
°C
Wind Press
QNH
hPa
Press
MSL
hPa
Rain
since 9 am
mm
Dir
 
Spd
km/h
Gust
km/h
Spd
kts
Gust
kts
26/11:00pm 14.5 12.7 7.3 62 3.5 W 6 9 3 5 - - 0.0
26/10:30pm 15.5 14.3 6.5 55 4.4 NNW 2 6 1 3 - - 0.0
26/10:00pm 16.5 14.3 6.3 51 5.0 SSW 7 11 4 6 - - 0.0
26/09:30pm 16.8 14.3 4.5 44 5.8 SW 7 13 4 7 - - 0.0
26/09:00pm 18.0 14.4 4.9 42 6.3 WSW 13 22 7 12 - - 0.0
26/08:30pm 17.9 15.9 7.3 50 5.3 NW 7 13 4 7 - - 0.0
26/08:00pm 19.6 16.7 6.7 43 6.5 NNW 11 19 6 10 - - 0.0
26/07:30pm 19.9 17.6 7.6 45 6.3 NW 9 13 5 7 - - 0.0
26/07:00pm 20.3 17.9 7.0 42 6.8 NW 9 13 5 7 - - 0.0
26/06:30pm 20.1 17.0 5.7 39 7.1 NW 11 20 6 11 - - 0.0
26/06:00pm 20.9 18.2 3.6 32 8.3 NW 7 11 4 6 - - 0.0
26/05:30pm 21.4 18.5 2.6 29 8.8 NNW 7 15 4 8 - - 0.0
26/05:00pm 21.5 17.9 2.7 29 8.9 NNW 11 17 6 9 - - 0.0
26/04:30pm 22.3 19.0 2.4 27 9.4 NNW 9 15 5 8 - - 0.0
26/04:00pm 21.7 18.9 2.9 29 8.9 N 7 13 4 7 - - 0.0
26/03:30pm 21.1 18.2 1.4 27 9.0 E 6 11 3 6 - - 0.0
26/03:00pm 21.5 19.3 5.4 35 8.0 E 6 7 3 4 - - 0.0
26/02:30pm 22.1 19.3 3.3 29 9.0 NNW 7 20 4 11 - - 0.0
26/02:00pm 22.1 19.5 3.3 29 9.0 NNW 6 9 3 5 - - 0.0
26/01:30pm 20.6 17.7 1.5 28 8.7 W 6 20 3 11 - - 0.0
26/01:00pm 20.1 17.4 2.9 32 8.1 SSW 6 13 3 7 - - 0.0
26/12:30pm 19.0 16.3 2.4 33 7.6 ENE 6 9 3 5 - - 0.0
26/12:00pm 19.2 16.5 3.8 36 7.3 NW 7 22 4 12 - - 0.0
26/11:30am 17.7 14.4 4.6 42 6.2 N 11 19 6 10 - - 0.0
26/11:00am 16.4 13.7 3.8 43 5.8 N 7 13 4 7 - - 0.0
26/10:30am 16.3 13.8 6.7 53 4.7 N 9 13 5 7 - - 0.0
26/10:00am 15.2 13.4 7.0 58 4.0 NNW 6 13 3 7 - - 0.0
26/09:30am 14.1 12.0 6.7 61 3.6 N 7 11 4 6 - - 0.0
26/09:00am 12.5 10.3 6.3 66 2.9 NNW 7 11 4 6 - - 0.8
26/08:30am 11.7 10.3 7.2 74 2.2 N 4 7 2 4 - - 0.8
26/08:00am 10.8 9.4 7.1 78 1.8 NW 4 6 2 3 - - 0.8
26/07:30am 9.5 8.2 6.0 79 1.6 ENE 2 4 1 2 - - 0.8
26/07:00am 7.8 6.5 5.8 87 0.9 S 2 4 1 2 - - 0.8
26/06:30am 7.2 5.9 5.8 91 0.6 WSW 2 9 1 5 - - 0.8
26/05:30am 7.0 5.1 5.0 87 0.9 E 4 6 2 3 - - 0.8
26/05:00am 7.5 5.7 5.5 87 0.9 E 4 6 2 3 - - 0.8
26/04:30am 7.3 6.3 5.6 89 0.8 CALM 0 0 0 0 - - 0.8
26/04:00am 7.7 6.7 5.8 88 0.9 CALM 0 0 0 0 - - 0.8
26/03:30am 7.3 5.7 4.4 82 1.3 E 2 4 1 2 - - 0.8
26/03:00am 8.0 6.4 4.6 79 1.5 NW 2 4 1 2 - - 0.8
26/02:30am 8.8 7.9 5.9 82 1.3 CALM 0 2 0 1 - - 0.8
26/02:00am 8.8 6.7 3.8 71 2.2 NW 4 4 2 2 - - 0.8
26/01:30am 9.0 6.3 3.8 70 2.3 WNW 7 9 4 5 - - 0.8
26/01:00am 9.3 6.7 4.1 70 2.3 NW 7 9 4 5 - - 0.8
26/12:30am 9.9 6.9 4.1 67 2.6 NW 9 15 5 8 - - 0.8
26/12:00am 9.9 7.2 3.6 65 2.7 NW 7 13 4 7 - - 0.8
 
Date/Time
EDT
Temp
°C
App
Temp
°C
Dew
Point
Rel
Hum
%
Delta-T
°C
Wind Press
QNH
hPa
Press
MSL
hPa
Rain
since 9 am
mm
Dir
 
Spd
km/h
Gust
km/h
Spd
kts
Gust
kts
25/11:30pm 10.1 7.0 3.6 64 2.8 WNW 9 13 5 7 - - 0.8
25/11:00pm 10.7 7.3 4.0 63 3.0 NW 11 15 6 8 - - 0.8
25/10:30pm 11.1 7.6 3.6 60 3.3 NW 11 15 6 8 - - 0.8
25/10:00pm 11.2 8.6 3.0 57 3.6 WNW 6 9 3 5 - - 0.8
25/09:30pm 12.1 8.1 2.6 52 4.1 NW 13 24 7 13 - - 0.8
25/09:00pm 12.7 9.5 3.1 52 4.2 NNW 9 15 5 8 - - 0.8
25/08:30pm 13.2 9.8 2.1 47 4.8 NW 9 19 5 10 - - 0.8
25/08:00pm 14.1 8.6 2.0 44 5.3 WNW 20 35 11 19 - - 0.8
25/07:30pm 15.4 9.3 2.9 43 5.6 WNW 24 37 13 20 - - 0.8
25/07:00pm 16.3 12.0 3.4 42 5.9 W 15 26 8 14 - - 0.8
25/06:30pm 16.1 10.8 2.9 41 6.0 WNW 20 37 11 20 - - 0.8
25/06:00pm 16.4 11.2 3.8 43 5.8 NW 20 35 11 19 - - 0.8
25/05:30pm 17.1 11.2 3.8 41 6.2 NW 24 39 13 21 - - 0.8
25/05:16pm 17.1 10.2 2.7 38 6.6 WNW 28 54 15 29 - - 0.8
25/05:00pm 17.9 11.8 3.0 37 6.9 WNW 24 43 13 23 - - 0.8
25/04:30pm 17.4 11.1 3.7 40 6.4 WNW 26 43 14 23 - - 0.8
25/04:00pm 17.3 12.3 8.2 55 4.6 W 24 41 13 22 - - 0.8
25/03:31pm 15.7 9.6 5.0 49 5.1 W 26 48 14 26 - - 0.4
25/03:30pm 16.1 10.0 4.8 47 5.3 W 26 48 14 26 - - 0.4
25/03:00pm 17.5 10.3 4.8 43 6.1 WNW 32 44 17 24 - - 0.2
25/02:30pm 18.4 13.8 5.6 43 6.2 WNW 19 35 10 19 - - 0.2
25/02:00pm 16.9 12.3 5.8 48 5.4 W 19 33 10 18 - - 0.2
25/01:30pm 17.1 11.9 5.7 47 5.5 WNW 22 39 12 21 - - 0.2
25/01:00pm 16.8 14.4 8.5 58 4.2 WNW 11 19 6 10 - - 0.2
25/12:30pm 17.9 14.1 5.8 45 5.9 WNW 15 24 8 13 - - 0.0
25/12:00pm 18.1 13.0 6.0 45 5.9 NNW 22 32 12 17 - - 0.0
25/11:30am 17.7 12.9 4.6 42 6.2 W 19 33 10 18 - - 0.0
25/11:00am 17.4 13.2 7.5 52 5.0 WNW 19 33 10 18 - - 0.0
25/10:30am 16.2 13.1 8.9 62 3.7 NW 15 24 8 13 - - 0.0
25/10:00am 16.1 13.0 10.4 69 3.0 NW 17 28 9 15 - - 0.0
25/09:30am 14.4 11.0 11.2 81 1.7 NNW 20 30 11 16 - - 0.0
25/09:00am 14.2 12.2 11.4 83 1.5 NW 13 24 7 13 - - 3.2
25/08:30am 14.3 13.3 11.1 81 1.7 N 7 11 4 6 - - 3.2
25/08:00am 13.8 12.0 10.8 82 1.6 NNW 11 20 6 11 - - 3.0
25/07:30am 14.1 10.9 10.1 77 2.1 NW 17 28 9 15 - - 3.0
25/07:00am 15.6 14.2 14.5 93 0.6 NW 15 26 8 14 - - 2.8
25/06:30am 15.6 14.6 14.5 93 0.6 NNW 13 19 7 10 - - 2.4
25/06:00am 15.9 15.6 14.3 90 0.9 NNW 9 19 5 10 - - 1.0
25/05:30am 17.1 14.9 13.4 79 2.1 N 17 24 9 13 - - 0.0
25/05:00am 16.9 15.4 13.2 79 2.1 N 13 22 7 12 - - 0.0
25/04:30am 16.5 16.2 13.4 82 1.7 N 7 13 4 7 - - 0.0
25/04:00am 16.3 15.5 13.0 81 1.8 NNW 9 13 5 7 - - 0.0
25/03:30am 15.9 15.8 13.2 84 1.5 NW 6 9 3 5 - - 0.0
25/03:00am 15.6 14.7 12.5 82 1.7 NW 9 11 5 6 - - 0.0
25/02:30am 14.9 14.3 12.2 84 1.5 NW 7 11 4 6 - - 0.0
25/02:00am 14.3 13.7 11.6 84 1.4 WNW 6 7 3 4 - - 0.0
25/01:30am 14.3 13.6 11.5 83 1.5 NW 6 7 3 4 - - 0.0
25/01:00am 14.4 13.5 11.2 81 1.7 NW 7 9 4 5 - - 0.0
25/12:30am 14.8 13.4 11.0 78 2.0 NW 9 11 5 6 - - 0.0
25/12:00am 15.0 13.2 10.8 76 2.2 WNW 11 17 6 9 - - 0.0
 
Date/Time
EDT
Temp
°C
App
Temp
°C
Dew
Point
Rel
Hum
%
Delta-T
°C
Wind Press
QNH
hPa
Press
MSL
hPa
Rain
since 9 am
mm
Dir
 
Spd
km/h
Gust
km/h
Spd
kts
Gust
kts
24/11:30pm 15.2 13.2 10.0 71 2.7 NW 11 17 6 9 - - 0.0
24/11:00pm 15.4 14.0 9.7 69 3.0 NW 7 11 4 6 - - 0.0
24/10:30pm 16.6 14.8 9.5 63 3.7 N 9 19 5 10 - - 0.0
24/10:00pm 16.9 14.0 9.8 63 3.7 N 15 24 8 13 - - 0.0
24/09:30pm 16.7 13.8 9.6 63 3.7 N 15 22 8 12 - - 0.0
24/09:00pm 16.9 13.6 9.6 62 3.8 NNW 17 22 9 12 - - 0.0
24/08:30pm 17.3 14.0 9.5 60 4.1 NNW 17 30 9 16 - - 0.0
24/08:00pm 18.1 13.8 9.2 56 4.6 NNW 22 32 12 17 - - 0.0
24/07:30pm 18.6 13.9 9.1 54 5.0 NNW 24 37 13 20 - - 0.0
24/07:00pm 19.5 14.8 9.4 52 5.3 NNW 24 39 13 21 - - 0.0
24/06:30pm 20.2 16.0 9.7 51 5.6 NNW 22 33 12 18 - - 0.0
24/06:00pm 20.2 15.5 9.2 49 5.8 NNW 24 35 13 19 - - 0.0
24/05:30pm 20.6 16.4 9.8 50 5.8 NNW 22 33 12 18 - - 0.0
24/05:00pm 20.7 16.0 9.3 48 6.1 NNW 24 37 13 20 - - 0.0
24/04:30pm 20.9 16.0 8.5 45 6.5 NNW 24 39 13 21 - - 0.0
24/04:00pm 21.3 17.0 9.2 46 6.4 NNW 22 35 12 19 - - 0.0
24/03:30pm 21.2 17.4 9.8 48 6.1 NNW 20 35 11 19 - - 0.0
24/03:00pm 20.8 16.8 9.1 47 6.2 NNW 20 32 11 17 - - 0.0
24/02:30pm 20.7 16.1 9.6 49 5.9 NNW 24 41 13 22 - - 0.0
24/02:00pm 19.9 15.4 8.6 48 5.9 NNW 22 39 12 21 - - 0.0
24/01:30pm 19.5 15.4 10.0 54 5.1 NNW 22 33 12 18 - - 0.0
24/01:00pm 18.8 14.0 8.7 52 5.2 NNW 24 33 13 18 - - 0.0
24/12:30pm 18.6 14.3 9.4 55 4.8 NNW 22 33 12 18 - - 0.0
24/12:00pm 18.6 13.9 9.1 54 5.0 NW 24 35 13 19 - - 0.0
24/11:30am 18.3 13.7 8.3 52 5.1 NW 22 35 12 19 - - 0.0
24/11:00am 18.4 14.4 8.9 54 4.9 NW 20 32 11 17 - - 0.0
24/10:30am 18.2 14.7 10.3 60 4.2 NW 19 26 10 14 - - 0.0
24/10:00am 17.6 14.4 10.0 61 4.0 NNW 17 24 9 13 - - 0.0
24/09:30am 17.0 13.7 9.4 61 4.0 NNW 17 26 9 14 - - 0.0
24/09:00am 16.3 13.0 9.7 65 3.4 NW 17 24 9 13 - - 0.0
24/08:30am 15.8 13.6 10.8 72 2.7 NW 13 19 7 10 - - 0.0
24/08:00am 15.1 13.8 11.1 77 2.1 NW 9 15 5 8 - - 0.0
24/07:30am 15.0 13.9 12.1 83 1.6 NW 9 13 5 7 - - 0.0
24/07:00am 14.7 14.1 12.2 85 1.4 NW 7 11 4 6 - - 0.0
24/06:30am 14.1 13.7 12.5 90 0.9 NW 6 9 3 5 - - 0.0
24/06:00am 14.0 13.4 12.2 89 1.0 NW 7 9 4 5 - - 0.0
24/05:30am 14.4 13.8 12.4 88 1.1 WNW 7 11 4 6 - - 0.0
24/05:00am 13.9 13.8 12.1 89 1.0 NNE 4 6 2 3 - - 0.0
24/04:30am 14.2 13.7 12.2 88 1.1 WNW 6 9 3 5 - - 0.0
24/04:00am 14.5 13.9 12.4 87 1.1 WNW 7 11 4 6 - - 0.0
24/03:30am 14.5 14.0 12.5 88 1.1 NW 7 11 4 6 - - 0.0
24/03:00am 14.1 13.4 12.1 88 1.1 WNW 7 9 4 5 - - 0.0
24/02:30am 14.1 13.8 11.6 85 1.3 NNW 4 6 2 3 - - 0.0
24/02:00am 14.4 14.6 11.9 85 1.3 NNW 2 2 1 1 - - 0.0
24/01:30am 13.9 13.4 10.7 81 1.7 NW 4 6 2 3 - - 0.0
24/01:00am 13.9 12.7 9.7 76 2.2 NNW 6 9 3 5 - - 0.0
24/12:30am 14.5 13.4 10.1 75 2.3 WNW 6 9 3 5 - - 0.0
24/12:00am 14.1 14.1 9.9 76 2.2 CALM 0 0 0 0 - - 0.0
 
Date/Time
EDT
Temp
°C
App
Temp
°C
Dew
Point
Rel
Hum
%
Delta-T
°C
Wind Press
QNH
hPa
Press
MSL
hPa
Rain
since 9 am
mm
Dir
 
Spd
km/h
Gust
km/h
Spd
kts
Gust
kts
23/11:30pm 15.2 14.3 9.3 68 3.0 W 4 6 2 3 - - 0.0

Other Formats:

Comma delimited format used in spreadsheet applications
http://www.bom.gov.au/fwo/IDT60801/IDT60801.94969.axf

JavaScript Object Notation format (JSON) in row-major order
http://www.bom.gov.au/fwo/IDT60801/IDT60801.94969.json